Time;durP1;ratioP1;P1;durP2;ratioP2;P2;SDS_P1;SDS_P2;PMS_P1;PMS_P2;Temp;Humidity;BMP_temperature;BMP_pressure;BME280_temperature;BME280_humidity;BME280_pressure;Samples;Min_cycle;Max_cycle;Signal;HPM_P1;HPM_P2
2021/12/10 00:01:57;;;;;;;25.30;13.10;;;;;;;2.71;89.77;93748.69;5034322;28;20679;-77
2021/12/10 00:04:29;;;;;;;33.13;13.55;;;;;;;2.73;89.88;93757.16;5034186;28;20196;-78
2021/12/10 00:07:00;;;;;;;31.65;16.20;;;;;;;2.82;89.78;93766.09;5022188;28;20205;-77
2021/12/10 00:09:31;;;;;;;27.90;12.77;;;;;;;2.75;89.31;93759.53;5008195;28;20254;-77
2021/12/10 00:12:06;;;;;;;34.17;13.15;;;;;;;2.72;89.21;93744.91;5027914;28;20639;-77
2021/12/10 00:14:34;;;;;;;31.27;15.15;;;;;;;2.83;89.51;93735.56;5033838;28;20238;-76
2021/12/10 00:17:04;;;;;;;30.88;13.50;;;;;;;3.00;89.05;93747.53;5034078;28;20670;-76
2021/12/10 00:19:35;;;;;;;31.27;15.45;;;;;;;3.21;88.26;93736.03;5034185;28;20201;-77
2021/12/10 00:22:07;;;;;;;36.95;21.48;;;;;;;3.19;87.63;93743.56;5034400;28;20207;-75
2021/12/10 00:24:34;;;;;;;35.03;15.10;;;;;;;2.98;88.09;93741.69;5033159;28;20232;-77
2021/12/10 00:27:05;;;;;;;31.92;13.70;;;;;;;2.94;88.81;93740.69;5033643;28;20740;-78
2021/12/10 00:29:34;;;;;;;25.20;13.40;;;;;;;3.05;88.84;93726.00;5033637;28;20196;-77
2021/12/10 00:32:07;;;;;;;29.48;14.20;;;;;;;3.17;89.21;93726.25;5033713;28;20228;-76
2021/12/10 00:34:38;;;;;;;25.50;11.43;;;;;;;3.14;88.52;93724.19;5027308;28;20280;-78
2021/12/10 00:37:09;;;;;;;22.50;12.13;;;;;;;3.24;88.40;93729.31;5007743;28;20654;-78
2021/12/10 00:39:39;;;;;;;23.52;11.50;;;;;;;3.34;88.14;93737.09;5027044;28;20233;-78
2021/12/10 00:42:11;;;;;;;25.45;11.23;;;;;;;3.37;88.16;93728.44;5022328;28;20247;-78
2021/12/10 00:44:38;;;;;;;22.67;11.40;;;;;;;3.31;88.42;93724.31;5031531;28;20208;-79
2021/12/10 00:47:06;;;;;;;23.02;12.25;;;;;;;3.46;87.63;93726.63;5033314;28;20200;-79
2021/12/10 00:49:34;;;;;;;22.50;10.98;;;;;;;3.49;87.11;93725.22;5032721;28;20262;-78
2021/12/10 00:52:01;;;;;;;19.15;10.15;;;;;;;3.42;87.83;93736.34;5033301;28;20212;-79
2021/12/10 00:54:28;;;;;;;23.88;11.80;;;;;;;3.43;87.74;93716.50;5032616;28;20200;-79
2021/12/10 00:56:55;;;;;;;17.85;9.13;;;;;;;3.37;89.22;93728.44;5030299;28;20258;-79
2021/12/10 00:59:23;;;;;;;19.73;10.15;;;;;;;3.51;89.16;93715.78;5033105;28;20243;-77
2021/12/10 01:01:51;;;;;;;16.98;9.27;;;;;;;3.63;88.42;93709.09;5033752;28;20205;-77
2021/12/10 01:04:22;;;;;;;23.08;10.07;;;;;;;3.54;87.91;93712.50;5033248;28;20238;-77
2021/12/10 01:06:51;;;;;;;23.25;10.90;;;;;;;3.47;88.64;93709.47;5033062;28;20196;-78
2021/12/10 01:09:21;;;;;;;35.35;20.77;;;;;;;3.43;88.53;93711.16;5032966;28;20235;-77
2021/12/10 01:11:51;;;;;;;24.48;12.65;;;;;;;3.57;88.48;93706.53;5033539;28;20222;-79
2021/12/10 01:14:38;;;;;;;20.70;9.43;;;;;;;3.61;87.69;93711.28;5007686;28;20197;-79
2021/12/10 01:25:33;;;;;;;19.33;9.13;;;;;;;3.41;89.03;93710.69;5031633;28;20203;-79
2021/12/10 01:28:01;;;;;;;24.65;11.52;;;;;;;3.39;88.39;93698.72;5031920;28;20200;-78
2021/12/10 01:30:32;;;;;;;24.23;12.25;;;;;;;3.33;88.70;93695.34;5006446;28;20212;-79
2021/12/10 01:33:04;;;;;;;24.77;11.80;;;;;;;3.17;89.85;93686.91;5033120;28;20282;-78
2021/12/10 01:35:35;;;;;;;21.98;10.68;;;;;;;3.31;89.77;93686.84;5025818;28;20717;-77
2021/12/10 01:38:05;;;;;;;27.08;13.23;;;;;;;3.44;89.26;93688.66;5032933;28;20347;-78
2021/12/10 01:40:34;;;;;;;23.10;13.43;;;;;;;3.42;88.81;93688.16;5018566;28;20226;-78
2021/12/10 01:43:06;;;;;;;21.63;11.18;;;;;;;3.41;89.84;93686.59;5028898;28;20236;-79
2021/12/10 01:45:40;;;;;;;26.35;12.25;;;;;;;3.34;89.92;93675.53;5032111;28;20197;-78
2021/12/10 01:48:11;;;;;;;28.00;12.50;;;;;;;3.49;89.40;93682.38;5031973;28;20291;-78
2021/12/10 01:50:38;;;;;;;23.35;11.90;;;;;;;3.44;89.53;93691.31;5032822;28;20199;-78
2021/12/10 01:53:10;;;;;;;23.98;13.10;;;;;;;3.57;89.59;93690.47;5019187;28;20701;-79
2021/12/10 01:55:39;;;;;;;27.40;13.35;;;;;;;3.71;88.36;93689.59;5032933;28;20256;-81
2021/12/10 01:58:13;;;;;;;27.27;12.85;;;;;;;3.57;88.84;93678.97;5033134;28;20621;-82
2021/12/10 02:00:44;;;;;;;27.80;12.30;;;;;;;3.57;89.43;93663.69;5034020;28;20193;-83
2021/12/10 02:03:13;;;;;;;29.05;12.68;;;;;;;3.69;89.39;93659.66;5031876;28;20289;-83
2021/12/10 02:05:40;;;;;;;25.88;13.05;;;;;;;3.69;88.96;93660.44;5032292;28;20254;-82
2021/12/10 02:08:08;;;;;;;24.15;11.75;;;;;;;3.70;88.90;93664.69;5032000;28;20262;-83
2021/12/10 02:10:35;;;;;;;25.67;13.50;;;;;;;3.74;89.24;93660.31;5032407;28;20287;-83
2021/12/10 02:13:03;;;;;;;23.75;11.63;;;;;;;3.70;89.08;93647.84;5031906;28;20270;-85
2021/12/10 02:15:30;;;;;;;23.00;12.02;;;;;;;3.59;88.89;93633.94;5032138;28;20254;-83
2021/12/10 02:18:00;;;;;;;22.50;11.95;;;;;;;3.53;89.54;93643.22;5032233;28;20204;-79
2021/12/10 02:20:32;;;;;;;27.80;13.38;;;;;;;3.19;90.83;93630.41;5031491;28;20208;-81
2021/12/10 02:23:01;;;;;;;25.65;12.98;;;;;;;3.02;92.06;93641.00;5031633;28;20307;-80
2021/12/10 02:25:30;;;;;;;24.17;13.07;;;;;;;3.16;92.25;93634.47;5031770;28;20204;-81
2021/12/10 02:27:58;;;;;;;24.98;13.63;;;;;;;3.37;91.55;93637.44;5031681;28;20732;-81
2021/12/10 02:30:29;;;;;;;33.75;16.00;;;;;;;3.45;91.31;93634.03;5022281;28;20225;-80
2021/12/10 02:32:57;;;;;;;25.33;13.02;;;;;;;3.45;91.63;93631.34;5031366;28;20769;-80
2021/12/10 02:35:25;;;;;;;31.67;15.50;;;;;;;3.37;91.73;93631.31;5018179;28;20542;-80
2021/12/10 02:37:52;;;;;;;28.88;15.73;;;;;;;3.35;91.59;93634.28;5025567;28;20720;-79
2021/12/10 02:40:23;;;;;;;32.47;15.52;;;;;;;3.42;91.90;93633.84;5019277;28;20225;-81
2021/12/10 02:42:52;;;;;;;30.02;15.65;;;;;;;3.47;91.71;93645.22;5026494;28;20605;-80
2021/12/10 02:45:24;;;;;;;28.35;14.18;;;;;;;3.50;91.56;93652.63;5031460;28;20254;-81
2021/12/10 02:47:52;;;;;;;27.80;13.27;;;;;;;3.64;91.17;93647.19;5031488;28;20977;-80
2021/12/10 02:50:24;;;;;;;25.25;12.45;;;;;;;3.64;90.70;93657.13;5030329;28;20721;-79
2021/12/10 02:52:51;;;;;;;20.70;11.35;;;;;;;3.56;91.00;93666.66;5031029;28;20196;-80
2021/12/10 02:55:22;;;;;;;25.15;12.73;;;;;;;3.64;91.00;93673.97;5031027;28;20250;-79
2021/12/10 02:57:52;;;;;;;18.33;9.82;;;;;;;3.63;90.63;93671.59;5031480;28;20196;-80
2021/12/10 03:00:23;;;;;;;29.42;12.38;;;;;;;3.42;91.09;93660.59;5031473;28;20200;-79
2021/12/10 03:02:50;;;;;;;17.33;8.38;;;;;;;3.39;91.21;93648.66;5031506;28;20235;-80
2021/12/10 03:05:17;;;;;;;25.65;10.43;;;;;;;3.41;91.54;93643.00;5031313;28;20211;-80
2021/12/10 03:07:45;;;;;;;19.92;10.48;;;;;;;3.38;91.99;93639.03;5031086;28;20212;-79
2021/12/10 03:10:16;;;;;;;22.30;11.63;;;;;;;3.39;92.43;93648.66;5030872;28;20212;-79
2021/12/10 03:12:46;;;;;;;22.20;12.15;;;;;;;3.49;92.00;93655.63;5005758;28;20224;-79
2021/12/10 03:15:16;;;;;;;25.90;12.30;;;;;;;3.41;91.86;93638.44;5029739;28;20269;-79
2021/12/10 03:17:43;;;;;;;20.58;11.52;;;;;;;3.40;91.98;93652.91;5029154;28;20203;-79
2021/12/10 03:20:13;;;;;;;18.02;9.35;;;;;;;3.55;91.94;93655.16;5029508;28;20200;-79
2021/12/10 03:22:40;;;;;;;19.92;10.32;;;;;;;3.49;91.58;93655.63;5030609;28;20254;-80
2021/12/10 03:25:10;;;;;;;21.83;11.75;;;;;;;3.54;91.26;93642.91;5031105;28;20297;-80
2021/12/10 03:27:37;;;;;;;22.85;10.95;;;;;;;3.68;91.08;93642.03;5030889;28;20262;-79
2021/12/10 03:30:09;;;;;;;18.95;11.25;;;;;;;3.70;91.33;93648.63;5017679;28;20212;-79
2021/12/10 03:32:39;;;;;;;31.80;13.02;;;;;;;3.65;91.38;93653.34;5030764;28;20699;-79
2021/12/10 03:35:13;;;;;;;25.45;11.70;;;;;;;3.64;91.66;93652.56;5024166;28;20547;-78
2021/12/10 03:37:41;;;;;;;20.73;11.60;;;;;;;3.75;91.81;93642.34;5031016;28;20199;-79
2021/12/10 03:40:11;;;;;;;23.75;12.88;;;;;;;3.68;91.39;93636.66;5020554;28;20229;-81
2021/12/10 03:42:38;;;;;;;20.40;11.07;;;;;;;3.49;92.02;93651.06;5025073;28;20208;-81
2021/12/10 03:45:09;;;;;;;22.70;11.55;;;;;;;3.43;93.06;93660.31;5030762;28;20370;-80
2021/12/10 03:47:36;;;;;;;25.02;13.10;;;;;;;3.53;92.90;93657.38;5030694;28;20258;-79
2021/12/10 03:50:05;;;;;;;22.27;11.40;;;;;;;3.52;92.70;93671.88;5030742;28;20254;-78
2021/12/10 03:52:33;;;;;;;21.98;10.40;;;;;;;3.72;92.54;93675.09;5030221;28;20258;-79
2021/12/10 03:55:01;;;;;;;22.77;11.02;;;;;;;3.75;92.62;93669.13;5030654;28;20204;-79
2021/12/10 03:57:28;;;;;;;23.05;11.23;;;;;;;3.86;91.69;93663.19;5030267;28;20205;-79
2021/12/10 03:59:55;;;;;;;27.25;11.48;;;;;;;3.71;91.82;93662.81;5030842;28;20204;-78
2021/12/10 04:02:23;;;;;;;25.52;12.32;;;;;;;3.70;92.83;93663.91;5030340;28;20208;-79
2021/12/10 04:04:52;;;;;;;19.30;10.65;;;;;;;3.67;92.58;93656.50;5030623;28;20235;-79
2021/12/10 04:07:22;;;;;;;19.85;10.10;;;;;;;3.32;94.11;93642.94;5030344;28;20212;-80
2021/12/10 04:09:50;;;;;;;15.88;8.75;;;;;;;3.53;94.16;93646.69;5030956;28;20193;-80
2021/12/10 04:12:18;;;;;;;18.27;9.95;;;;;;;3.45;93.93;93660.78;5030773;28;20201;-80
2021/12/10 04:14:47;;;;;;;19.92;10.35;;;;;;;3.45;93.93;93660.00;5030731;28;20295;-79
2021/12/10 04:17:17;;;;;;;19.73;10.25;;;;;;;3.58;93.81;93664.47;5030351;28;20267;-81
2021/12/10 04:19:46;;;;;;;22.38;11.10;;;;;;;3.61;93.57;93663.06;5030602;28;20204;-80
2021/12/10 04:22:15;;;;;;;28.58;12.13;;;;;;;3.63;93.95;93671.59;5019780;28;20204;-80
2021/12/10 04:24:46;;;;;;;33.97;16.05;;;;;;;3.68;93.71;93666.13;5014492;28;20240;-79
2021/12/10 04:27:17;;;;;;;30.95;13.15;;;;;;;3.74;93.46;93672.91;5027081;28;20197;-79
2021/12/10 04:29:44;;;;;;;10.93;6.07;;;;;;;3.69;93.85;93665.03;5013449;28;20295;-79
2021/12/10 04:32:14;;;;;;;18.38;8.45;;;;;;;3.70;94.84;93671.94;5014215;28;20244;-79
2021/12/10 04:34:41;;;;;;;25.02;12.05;;;;;;;3.75;94.72;93669.13;5011619;28;20214;-79
2021/12/10 04:37:12;;;;;;;21.90;10.23;;;;;;;3.83;94.92;93671.84;5021694;28;20609;-78
2021/12/10 04:39:45;;;;;;;21.65;9.80;;;;;;;3.96;95.00;93675.53;5026667;28;20283;-79
2021/12/10 04:42:12;;;;;;;29.98;13.18;;;;;;;4.01;94.31;93677.28;5023568;28;20196;-78
2021/12/10 04:44:40;;;;;;;22.80;11.93;;;;;;;4.06;93.67;93674.47;5033111;28;20274;-78
2021/12/10 04:47:07;;;;;;;40.30;16.42;;;;;;;4.14;92.99;93671.00;5033467;28;20216;-79
2021/12/10 04:49:35;;;;;;;17.38;8.82;;;;;;;4.12;93.28;93674.00;5033537;28;20271;-79
2021/12/10 04:52:03;;;;;;;32.40;14.65;;;;;;;3.97;93.71;93671.72;5034067;28;20270;-79
2021/12/10 04:54:32;;;;;;;29.08;16.67;;;;;;;4.08;93.51;93677.63;5032892;28;20262;-79
2021/12/10 04:57:00;;;;;;;21.75;11.35;;;;;;;4.12;93.40;93678.56;5032840;28;20358;-78
2021/12/10 04:59:29;;;;;;;29.97;16.33;;;;;;;4.25;93.26;93678.47;5031262;28;20492;-79
2021/12/10 05:01:57;;;;;;;30.35;14.65;;;;;;;4.24;92.99;93676.09;5033127;28;20204;-78
2021/12/10 05:04:25;;;;;;;26.23;11.27;;;;;;;4.13;92.58;93680.94;5033104;28;20255;-78
2021/12/10 05:06:54;;;;;;;20.65;10.70;;;;;;;4.00;93.02;93667.66;5033720;28;20266;-78
2021/12/10 05:09:22;;;;;;;22.35;13.70;;;;;;;4.07;93.48;93671.47;5022833;28;20200;-77
2021/12/10 05:11:52;;;;;;;21.38;13.38;;;;;;;4.19;92.88;93663.63;5020113;28;20299;-78
2021/12/10 05:14:20;;;;;;;20.70;12.75;;;;;;;4.22;92.39;93673.75;5000121;28;20197;-78
2021/12/10 05:16:49;;;;;;;25.77;15.00;;;;;;;4.20;91.72;93670.56;5026752;28;20204;-78
2021/12/10 05:19:20;;;;;;;61.70;31.80;;;;;;;4.16;91.99;93680.31;5032607;28;20566;-78
2021/12/10 05:21:48;;;;;;;42.55;25.10;;;;;;;4.18;91.97;93671.97;5019514;28;20653;-78
2021/12/10 05:24:17;;;;;;;56.17;29.77;;;;;;;4.20;91.98;93667.91;5010830;28;20224;-78
2021/12/10 05:26:45;;;;;;;51.53;26.88;;;;;;;4.09;92.04;93671.97;5008481;28;20201;-78
2021/12/10 05:29:15;;;;;;;48.83;26.00;;;;;;;3.89;92.61;93691.25;5012347;28;20617;-77
2021/12/10 05:31:44;;;;;;;34.05;18.25;;;;;;;3.95;93.00;93689.25;5011086;28;20227;-78
2021/12/10 05:34:12;;;;;;;30.77;14.25;;;;;;;3.96;92.96;93696.97;5012294;28;20668;-77
2021/12/10 05:36:40;;;;;;;37.55;15.77;;;;;;;3.92;92.69;93682.59;5013226;28;20656;-79
2021/12/10 05:39:09;;;;;;;46.63;24.80;;;;;;;3.76;93.55;93676.06;5010530;28;20583;-78
2021/12/10 05:41:37;;;;;;;41.75;23.05;;;;;;;3.88;93.77;93695.03;5010834;28;20200;-77
2021/12/10 05:44:05;;;;;;;29.27;13.13;;;;;;;3.84;94.38;93691.38;5012956;28;20279;-78
2021/12/10 05:46:33;;;;;;;26.55;12.70;;;;;;;3.67;94.84;93678.72;5009569;28;20665;-78
2021/12/10 05:49:01;;;;;;;30.52;13.90;;;;;;;3.68;95.00;93687.53;5011927;28;20197;-78
2021/12/10 05:51:29;;;;;;;16.15;9.23;;;;;;;3.67;95.45;93685.97;5010765;28;20640;-78
2021/12/10 05:53:56;;;;;;;20.17;11.40;;;;;;;3.56;96.08;93646.03;5012065;28;20253;-78
2021/12/10 05:56:23;;;;;;;24.38;12.48;;;;;;;3.57;96.53;93647.63;5010105;28;20201;-78
2021/12/10 05:58:51;;;;;;;17.10;9.88;;;;;;;3.58;96.26;93681.34;5011709;28;20201;-78
2021/12/10 06:01:20;;;;;;;18.85;9.90;;;;;;;3.52;96.29;93661.16;5019749;28;20200;-78
2021/12/10 06:03:52;;;;;;;12.20;6.70;;;;;;;3.58;96.94;93648.41;5018041;28;20212;-77
2021/12/10 06:06:21;;;;;;;18.02;9.85;;;;;;;3.62;96.90;93659.31;5010041;28;20580;-77
2021/12/10 06:08:48;;;;;;;20.02;10.80;;;;;;;3.64;96.65;93670.50;5011456;28;20201;-77
2021/12/10 06:11:16;;;;;;;26.77;11.77;;;;;;;3.72;96.56;93670.53;5011738;28;20248;-77
2021/12/10 06:13:43;;;;;;;20.05;8.93;;;;;;;3.67;96.10;93667.22;5013394;28;20234;-78
2021/12/10 06:16:11;;;;;;;21.20;10.55;;;;;;;3.50;95.79;93649.97;5012660;28;20192;-79
2021/12/10 06:18:39;;;;;;;13.15;7.82;;;;;;;3.47;95.63;93663.94;5012364;28;20209;-79
2021/12/10 06:21:08;;;;;;;19.70;11.02;;;;;;;3.45;95.40;93673.38;5010993;28;20197;-79
2021/12/10 06:23:35;;;;;;;23.55;12.73;;;;;;;3.40;95.26;93690.38;5013399;28;20205;-79
2021/12/10 06:26:04;;;;;;;16.15;9.80;;;;;;;3.36;95.27;93697.44;5008613;28;20225;-78
2021/12/10 06:28:31;;;;;;;19.25;10.35;;;;;;;3.18;95.42;93683.13;5025228;28;20209;-80
2021/12/10 06:30:59;;;;;;;25.63;10.73;;;;;;;3.22;95.81;93677.97;5011543;28;20311;-79
2021/12/10 06:33:28;;;;;;;27.80;14.40;;;;;;;3.15;95.78;93677.59;5029257;28;20204;-79
2021/12/10 06:35:58;;;;;;;31.17;15.65;;;;;;;3.25;95.87;93690.75;5025675;28;20346;-79
2021/12/10 06:38:27;;;;;;;28.52;14.55;;;;;;;3.34;95.61;93672.84;5015534;28;20660;-79
2021/12/10 06:40:55;;;;;;;34.22;15.23;;;;;;;3.28;95.63;93666.03;5010467;28;20601;-78
2021/12/10 06:43:23;;;;;;;30.10;14.20;;;;;;;3.32;95.75;93650.94;5017830;28;20196;-78
2021/12/10 06:45:52;;;;;;;37.38;19.15;;;;;;;3.50;95.66;93652.63;5010698;28;20291;-77
2021/12/10 06:48:21;;;;;;;35.63;20.08;;;;;;;3.61;95.68;93658.50;5010642;28;20680;-78
2021/12/10 06:50:51;;;;;;;36.75;18.08;;;;;;;3.86;95.62;93667.75;5009822;28;20671;-78
2021/12/10 06:53:21;;;;;;;30.42;14.60;;;;;;;3.61;94.86;93655.03;5010109;28;20197;-79
2021/12/10 06:55:50;;;;;;;24.15;14.05;;;;;;;3.62;95.23;93651.28;5010540;28;20618;-79
2021/12/10 06:58:19;;;;;;;38.15;15.80;;;;;;;3.82;95.17;93648.06;5011230;28;20197;-79
2021/12/10 07:00:50;;;;;;;34.58;16.15;;;;;;;3.92;94.59;93637.06;5009631;28;20216;-77
2021/12/10 07:03:21;;;;;;;43.63;21.00;;;;;;;4.06;95.49;93645.78;5009321;28;20663;-79
2021/12/10 07:05:49;;;;;;;25.13;11.73;;;;;;;4.02;95.20;93660.91;5009483;28;20342;-77
2021/12/10 07:08:18;;;;;;;22.83;12.15;;;;;;;4.15;95.52;93646.59;5010285;28;20208;-79
2021/12/10 07:10:46;;;;;;;38.75;18.73;;;;;;;4.23;95.41;93664.59;5010476;28;20619;-78
2021/12/10 07:13:15;;;;;;;29.83;15.63;;;;;;;4.21;94.98;93684.75;5010663;28;20209;-78
2021/12/10 07:15:45;;;;;;;18.10;10.63;;;;;;;3.91;94.89;93668.44;5010240;28;20197;-78
2021/12/10 07:18:13;;;;;;;26.50;13.63;;;;;;;4.09;94.53;93653.22;5010958;28;20629;-77
2021/12/10 07:20:42;;;;;;;39.92;23.65;;;;;;;4.17;94.75;93671.19;5009976;28;20627;-76
2021/12/10 07:23:10;;;;;;;31.38;16.85;;;;;;;4.17;94.79;93671.19;5008929;28;20212;-78
2021/12/10 07:25:38;;;;;;;37.60;15.98;;;;;;;4.31;94.74;93673.75;5010081;28;20777;-78
2021/12/10 07:28:05;;;;;;;42.53;17.50;;;;;;;4.41;94.28;93667.31;5011323;28;20196;-78
2021/12/10 07:30:35;;;;;;;49.08;21.67;;;;;;;4.53;93.88;93651.38;5010391;28;20240;-78
2021/12/10 07:33:02;;;;;;;40.35;19.60;;;;;;;4.71;93.57;93658.38;5009848;28;20209;-77
2021/12/10 07:35:30;;;;;;;41.75;18.95;;;;;;;4.45;94.07;93657.53;5009120;28;20706;-76
2021/12/10 07:37:57;;;;;;;35.85;19.33;;;;;;;4.64;94.58;93653.47;5024324;28;20675;-77
2021/12/10 07:40:27;;;;;;;37.70;16.08;;;;;;;4.76;94.00;93660.91;5016903;28;20620;-78
2021/12/10 07:42:54;;;;;;;36.67;19.13;;;;;;;4.79;93.41;93654.88;5009080;28;20209;-78
2021/12/10 07:45:22;;;;;;;35.97;17.23;;;;;;;4.93;93.19;93660.88;5007767;28;20303;-78
2021/12/10 07:47:53;;;;;;;31.73;17.52;;;;;;;5.08;93.08;93659.63;5010181;28;20266;-77
2021/12/10 07:50:23;;;;;;;33.65;16.40;;;;;;;5.14;92.85;93649.53;5007562;28;20240;-76
2021/12/10 07:52:54;;;;;;;33.65;17.40;;;;;;;5.34;93.07;93654.22;5008914;28;20223;-79
2021/12/10 07:55:23;;;;;;;37.63;18.13;;;;;;;5.62;92.05;93649.28;5013818;28;20236;-75
2021/12/10 07:57:50;;;;;;;32.88;17.48;;;;;;;5.80;91.06;93639.28;5006023;28;20753;-75
2021/12/10 08:00:18;;;;;;;76.18;39.30;;;;;;;5.69;89.92;93634.25;5009345;28;20263;-76
2021/12/10 08:02:46;;;;;;;44.78;22.60;;;;;;;5.82;90.62;93647.78;5014174;28;20267;-74
2021/12/10 08:05:17;;;;;;;56.60;28.83;;;;;;;5.95;90.30;93657.59;5014440;28;20715;-75
2021/12/10 08:07:45;;;;;;;51.72;23.58;;;;;;;5.95;89.31;93662.97;5013172;28;20193;-76
2021/12/10 08:10:14;;;;;;;45.55;21.75;;;;;;;5.48;90.88;93638.72;5016114;28;20197;-76
2021/12/10 08:12:41;;;;;;;63.83;27.77;;;;;;;5.58;91.36;93651.81;5014094;28;20209;-76
2021/12/10 08:15:09;;;;;;;59.72;29.23;;;;;;;6.02;90.26;93652.47;5014641;28;20205;-77
2021/12/10 08:17:37;;;;;;;73.82;43.88;;;;;;;6.28;89.36;93661.25;5014659;28;20213;-74
2021/12/10 08:20:04;;;;;;;58.25;36.40;;;;;;;6.40;88.47;93653.25;5013859;28;20251;-76
2021/12/10 08:22:32;;;;;;;54.40;29.88;;;;;;;6.50;88.12;93645.94;5012179;28;20193;-74
2021/12/10 08:24:59;;;;;;;76.32;45.92;;;;;;;7.17;86.79;93653.03;5017225;28;20235;-74
2021/12/10 08:27:26;;;;;;;57.83;35.45;;;;;;;7.42;85.71;93650.13;5016647;28;20745;-75
2021/12/10 08:29:53;;;;;;;47.25;28.13;;;;;;;7.66;84.74;93638.63;5017973;28;20275;-75
2021/12/10 08:32:20;;;;;;;45.67;28.02;;;;;;;7.78;83.15;93624.41;5016790;28;20197;-75
2021/12/10 08:34:48;;;;;;;52.08;32.63;;;;;;;7.40;86.72;93630.00;5013261;28;20213;-75
2021/12/10 08:37:15;;;;;;;52.50;33.30;;;;;;;7.59;85.36;93649.16;5014523;28;20260;-75
2021/12/10 08:39:44;;;;;;;44.03;29.45;;;;;;;7.62;84.73;93651.19;5012299;28;20331;-76
2021/12/10 08:42:14;;;;;;;47.28;32.08;;;;;;;7.29;85.32;93634.22;5015517;28;20567;-76
2021/12/10 08:44:42;;;;;;;46.38;28.33;;;;;;;6.59;89.27;93643.97;5013772;28;20197;-76
2021/12/10 08:47:09;;;;;;;45.90;27.77;;;;;;;6.71;87.73;93642.13;5013625;28;20268;-78
2021/12/10 08:49:36;;;;;;;42.13;25.88;;;;;;;6.12;89.35;93641.38;5016055;28;20622;-77
2021/12/10 08:52:06;;;;;;;42.20;24.92;;;;;;;6.39;89.26;93646.31;5014249;28;20201;-79
2021/12/10 08:54:35;;;;;;;44.00;27.38;;;;;;;6.77;88.35;93635.44;5011080;28;20578;-77
2021/12/10 08:57:05;;;;;;;50.67;29.42;;;;;;;7.00;87.83;93635.91;5012128;28;20266;-75
2021/12/10 08:59:34;;;;;;;43.63;28.75;;;;;;;7.18;88.01;93638.47;5009268;28;20267;-77
2021/12/10 09:02:03;;;;;;;39.92;26.58;;;;;;;6.99;87.46;93647.78;5012770;28;20204;-77
2021/12/10 09:04:31;;;;;;;48.53;29.83;;;;;;;6.96;86.71;93626.94;5013092;28;20202;-77
2021/12/10 09:07:02;;;;;;;36.65;22.05;;;;;;;6.64;87.89;93624.94;5008798;28;20228;-77
2021/12/10 09:09:31;;;;;;;42.60;25.90;;;;;;;6.45;89.08;93640.72;5005026;28;20656;-79
2021/12/10 09:12:02;;;;;;;48.42;30.65;;;;;;;6.57;89.96;93655.03;5011253;28;20205;-76
2021/12/10 09:14:38;;;;;;;47.90;29.42;;;;;;;6.70;89.17;93637.06;5011003;28;20691;-76
2021/12/10 09:17:06;;;;;;;40.22;24.67;;;;;;;6.15;90.73;93632.66;5014661;28;20192;-79
2021/12/10 09:19:34;;;;;;;45.13;25.50;;;;;;;6.07;90.94;93622.75;5011878;28;20201;-77
2021/12/10 09:22:02;;;;;;;46.00;27.85;;;;;;;6.20;90.55;93616.34;5013457;28;20204;-73
2021/12/10 09:24:33;;;;;;;45.80;28.85;;;;;;;6.25;89.55;93618.88;5012702;28;20197;-77
2021/12/10 09:27:01;;;;;;;52.17;31.10;;;;;;;6.32;89.30;93629.88;5018445;28;20229;-77
2021/12/10 09:29:35;;;;;;;50.05;30.67;;;;;;;6.17;89.00;93635.81;5011165;28;20249;-77
2021/12/10 09:32:03;;;;;;;48.30;30.30;;;;;;;6.23;89.94;93637.22;5007338;28;21330;-74
2021/12/10 09:34:30;;;;;;;53.13;32.55;;;;;;;6.61;88.29;93629.06;5019304;28;20256;-78
2021/12/10 09:36:58;;;;;;;57.60;34.35;;;;;;;6.39;88.22;93619.41;5028684;28;20209;-78
2021/12/10 09:39:37;;;;;;;65.10;35.15;;;;;;;6.17;89.38;93589.31;5006557;28;20244;-76
2021/12/10 09:42:22;;;;;;;68.10;39.85;;;;;;;6.57;89.29;93597.75;5021369;28;20200;-74
2021/12/10 09:44:54;;;;;;;78.57;45.78;;;;;;;7.18;86.86;93598.06;5019532;28;20192;-75
2021/12/10 09:47:22;;;;;;;93.30;52.65;;;;;;;7.43;85.02;93586.25;5032779;28;20196;-76
2021/12/10 09:49:53;;;;;;;97.00;54.97;;;;;;;8.30;83.50;93597.56;5032541;28;20250;-76
2021/12/10 09:52:26;;;;;;;94.20;53.88;;;;;;;8.57;80.43;93584.53;5032516;28;20204;-76
2021/12/10 09:54:53;;;;;;;92.47;52.60;;;;;;;8.51;80.64;93586.66;5000628;28;20209;-78
2021/12/10 09:57:25;;;;;;;112.20;60.90;;;;;;;8.51;81.03;93584.75;5018532;28;20197;-76
2021/12/10 09:59:55;;;;;;;97.60;52.83;;;;;;;8.47;81.06;93578.44;5011652;28;20283;-75
2021/12/10 10:02:24;;;;;;;93.63;51.92;;;;;;;8.97;78.88;93581.84;5016085;28;20193;-74
2021/12/10 10:04:53;;;;;;;92.80;53.25;;;;;;;9.31;78.08;93562.31;5017437;28;20209;-76
2021/12/10 10:07:26;;;;;;;86.57;50.10;;;;;;;9.86;75.30;93547.91;5024763;28;20648;-75
2021/12/10 10:09:57;;;;;;;109.85;62.42;;;;;;;10.06;75.60;93550.72;5021661;28;20203;-75
2021/12/10 10:12:29;;;;;;;88.90;51.22;;;;;;;10.11;74.28;93539.63;5030976;28;20980;-76
2021/12/10 10:14:58;;;;;;;90.57;51.80;;;;;;;8.33;80.36;93551.06;5032189;28;20192;-75
2021/12/10 10:17:26;;;;;;;87.90;54.20;;;;;;;8.65;80.05;93570.91;5018290;28;20219;-76
2021/12/10 10:19:54;;;;;;;81.15;48.42;;;;;;;9.17;79.83;93564.63;5015921;28;20264;-74
2021/12/10 10:22:24;;;;;;;77.47;46.10;;;;;;;9.08;78.01;93561.31;5026466;28;20659;-74
2021/12/10 10:24:52;;;;;;;74.15;45.33;;;;;;;9.51;77.50;93547.81;5022329;28;20252;-74
2021/12/10 10:27:23;;;;;;;66.63;39.42;;;;;;;9.51;76.05;93547.03;5012752;28;20264;-74
2021/12/10 10:29:54;;;;;;;74.53;45.60;;;;;;;9.14;78.04;93536.41;5012936;28;20259;-74
2021/12/10 10:32:27;;;;;;;73.55;43.80;;;;;;;9.48;76.75;93531.50;5031285;28;20204;-74
2021/12/10 10:35:01;;;;;;;66.90;42.97;;;;;;;9.49;75.28;93522.25;5024861;28;20188;-73
2021/12/10 10:37:28;;;;;;;65.55;40.47;;;;;;;9.61;76.16;93528.38;5029218;28;20259;-74
2021/12/10 10:39:56;;;;;;;48.50;32.05;;;;;;;9.61;74.86;93520.25;5019875;28;20291;-74
2021/12/10 10:42:28;;;;;;;49.92;31.38;;;;;;;9.06;76.31;93523.84;5011362;28;20216;-73
2021/12/10 10:44:58;;;;;;;55.55;32.88;;;;;;;9.55;77.63;93531.69;5015271;28;20649;-73
2021/12/10 10:47:27;;;;;;;49.67;32.38;;;;;;;9.60;76.18;93528.72;5009745;28;20240;-72
2021/12/10 10:49:56;;;;;;;52.80;32.92;;;;;;;9.33;75.67;93519.53;5021300;28;20200;-72
2021/12/10 10:52:28;;;;;;;52.83;33.75;;;;;;;9.19;76.82;93530.75;5023915;28;20209;-73
2021/12/10 10:54:59;;;;;;;54.60;32.75;;;;;;;9.11;76.69;93520.91;5025337;28;20197;-73
2021/12/10 10:57:31;;;;;;;55.05;34.30;;;;;;;8.86;77.82;93516.75;5029392;28;20200;-74
2021/12/10 11:00:02;;;;;;;49.38;31.58;;;;;;;8.90;78.78;93517.59;5029751;28;20216;-73
2021/12/10 11:02:48;;;;;;;46.80;28.77;;;;;;;8.46;78.75;93500.56;5029418;28;20220;-73
2021/12/10 11:05:15;;;;;;;52.60;32.22;;;;;;;8.46;80.44;93509.44;5022977;28;20204;-72
2021/12/10 11:07:46;;;;;;;49.10;29.67;;;;;;;8.61;79.80;93520.66;5022180;28;20236;-72
2021/12/10 11:10:15;;;;;;;48.03;28.95;;;;;;;8.42;79.47;93519.34;5027713;28;20240;-71
2021/12/10 11:12:43;;;;;;;43.42;26.02;;;;;;;8.16;80.53;93527.78;5029685;28;20211;-73
2021/12/10 11:15:13;;;;;;;43.22;29.08;;;;;;;8.09;81.70;93532.94;5027959;28;20295;-72
2021/12/10 11:17:44;;;;;;;39.67;25.15;;;;;;;7.58;82.72;93530.94;5022333;28;20200;-72
2021/12/10 11:20:16;;;;;;;33.30;21.35;;;;;;;7.19;84.81;93532.31;5011702;28;20208;-72
2021/12/10 11:22:46;;;;;;;37.65;24.48;;;;;;;7.29;84.87;93534.59;5029404;28;20201;-72
2021/12/10 11:25:19;;;;;;;34.97;21.77;;;;;;;7.44;83.96;93528.56;5029207;28;20266;-72
2021/12/10 11:27:47;;;;;;;32.60;18.33;;;;;;;7.24;83.59;93524.03;5026964;28;20232;-72
2021/12/10 11:30:19;;;;;;;29.55;18.30;;;;;;;6.96;84.93;93524.63;5028034;28;20196;-72
2021/12/10 11:32:49;;;;;;;29.02;17.45;;;;;;;6.86;85.28;93514.25;5029777;28;20263;-72
2021/12/10 11:35:19;;;;;;;27.60;17.33;;;;;;;6.83;86.09;93509.56;5014058;28;20193;-71
2021/12/10 11:37:54;;;;;;;29.77;18.13;;;;;;;6.72;85.10;93497.63;5027246;28;20658;-71
2021/12/10 11:40:41;;;;;;;29.92;19.23;;;;;;;6.79;85.58;93497.88;5004080;28;20263;-71
2021/12/10 11:43:21;;;;;;;36.85;20.63;;;;;;;6.92;84.89;93494.09;5008921;28;20209;-71
2021/12/10 11:46:03;;;;;;;31.52;18.00;;;;;;;7.02;84.34;93495.59;5010096;28;20204;-71